sensor_id;sensor_type;location;lat;lon;timestamp;pressure;altitude;pressure_sealevel;temperature;humidity
38812;BME280;24553;51.640;-0.752;2022-07-22T00:02:04;101451.03;;;17.48;100.00
38812;BME280;24553;51.640;-0.752;2022-07-22T00:04:30;101450.19;;;17.48;100.00
38812;BME280;24553;51.640;-0.752;2022-07-22T00:06:55;101443.19;;;17.47;100.00
38812;BME280;24553;51.640;-0.752;2022-07-22T00:09:21;101442.38;;;17.46;100.00
38812;BME280;24553;51.640;-0.752;2022-07-22T00:11:46;101448.78;;;17.45;100.00
38812;BME280;24553;51.640;-0.752;2022-07-22T00:14:11;101453.72;;;17.41;100.00
38812;BME280;24553;51.640;-0.752;2022-07-22T00:16:38;101446.50;;;17.42;100.00
38812;BME280;24553;51.640;-0.752;2022-07-22T00:19:03;101441.56;;;17.39;100.00
38812;BME280;24553;51.640;-0.752;2022-07-22T00:21:29;101440.13;;;17.36;100.00
38812;BME280;24553;51.640;-0.752;2022-07-22T00:23:54;101427.38;;;17.32;100.00
38812;BME280;24553;51.640;-0.752;2022-07-22T00:26:20;101425.94;;;17.29;100.00
38812;BME280;24553;51.640;-0.752;2022-07-22T00:28:45;101423.25;;;17.29;100.00
38812;BME280;24553;51.640;-0.752;2022-07-22T00:31:10;101424.50;;;17.27;100.00
38812;BME280;24553;51.640;-0.752;2022-07-22T00:33:36;101422.06;;;17.25;100.00
38812;BME280;24553;51.640;-0.752;2022-07-22T00:36:01;101420.63;;;17.22;100.00
38812;BME280;24553;51.640;-0.752;2022-07-22T00:38:27;101424.31;;;17.21;100.00
38812;BME280;24553;51.640;-0.752;2022-07-22T00:40:52;101422.69;;;17.20;100.00
38812;BME280;24553;51.640;-0.752;2022-07-22T00:43:17;101424.75;;;17.18;100.00
38812;BME280;24553;51.640;-0.752;2022-07-22T00:45:43;101424.56;;;17.13;100.00
38812;BME280;24553;51.640;-0.752;2022-07-22T00:48:08;101434.66;;;17.11;100.00
38812;BME280;24553;51.640;-0.752;2022-07-22T00:50:34;101425.19;;;17.09;100.00
38812;BME280;24553;51.640;-0.752;2022-07-22T00:53:00;101425.59;;;17.06;100.00
38812;BME280;24553;51.640;-0.752;2022-07-22T00:55:25;101425.41;;;17.07;100.00
38812;BME280;24553;51.640;-0.752;2022-07-22T00:57:51;101422.50;;;17.09;100.00
38812;BME280;24553;51.640;-0.752;2022-07-22T01:00:19;101419.81;;;17.09;100.00
38812;BME280;24553;51.640;-0.752;2022-07-22T01:02:45;101418.81;;;17.10;100.00
38812;BME280;24553;51.640;-0.752;2022-07-22T01:05:10;101415.50;;;17.08;100.00
38812;BME280;24553;51.640;-0.752;2022-07-22T01:07:37;101410.97;;;17.08;100.00
38812;BME280;24553;51.640;-0.752;2022-07-22T01:10:03;101414.47;;;17.09;100.00
38812;BME280;24553;51.640;-0.752;2022-07-22T01:12:29;101414.88;;;17.06;100.00
38812;BME280;24553;51.640;-0.752;2022-07-22T01:14:54;101408.72;;;17.05;100.00
38812;BME280;24553;51.640;-0.752;2022-07-22T01:17:20;101415.13;;;17.04;100.00
38812;BME280;24553;51.640;-0.752;2022-07-22T01:19:45;101408.09;;;17.03;100.00
38812;BME280;24553;51.640;-0.752;2022-07-22T01:22:11;101404.22;;;16.99;100.00
38812;BME280;24553;51.640;-0.752;2022-07-22T01:24:36;101406.28;;;16.97;100.00
38812;BME280;24553;51.640;-0.752;2022-07-22T01:27:02;101407.09;;;16.91;100.00
38812;BME280;24553;51.640;-0.752;2022-07-22T01:29:27;101402.78;;;16.90;100.00
38812;BME280;24553;51.640;-0.752;2022-07-22T01:31:52;101398.91;;;16.86;100.00
38812;BME280;24553;51.640;-0.752;2022-07-22T01:34:18;101398.28;;;16.84;100.00
38812;BME280;24553;51.640;-0.752;2022-07-22T01:36:43;101399.28;;;16.83;100.00
38812;BME280;24553;51.640;-0.752;2022-07-22T01:39:09;101401.97;;;16.83;100.00
38812;BME280;24553;51.640;-0.752;2022-07-22T01:41:34;101401.38;;;16.81;100.00
38812;BME280;24553;51.640;-0.752;2022-07-22T01:43:59;101397.03;;;16.79;100.00
38812;BME280;24553;51.640;-0.752;2022-07-22T01:46:25;101394.34;;;16.79;100.00
38812;BME280;24553;51.640;-0.752;2022-07-22T01:48:51;101394.75;;;16.76;100.00
38812;BME280;24553;51.640;-0.752;2022-07-22T01:51:17;101396.81;;;16.74;100.00
38812;BME280;24553;51.640;-0.752;2022-07-22T01:53:43;101395.38;;;16.72;100.00
38812;BME280;24553;51.640;-0.752;2022-07-22T01:56:08;101392.31;;;16.68;100.00
38812;BME280;24553;51.640;-0.752;2022-07-22T01:58:34;101385.72;;;16.64;100.00
38812;BME280;24553;51.640;-0.752;2022-07-22T02:00:59;101388.00;;;16.61;100.00
38812;BME280;24553;51.640;-0.752;2022-07-22T02:03:24;101389.66;;;16.55;100.00
38812;BME280;24553;51.640;-0.752;2022-07-22T02:05:50;101398.94;;;16.52;100.00
38812;BME280;24553;51.640;-0.752;2022-07-22T02:08:15;101390.91;;;16.52;100.00
38812;BME280;24553;51.640;-0.752;2022-07-22T02:10:40;101387.78;;;16.49;100.00
38812;BME280;24553;51.640;-0.752;2022-07-22T02:13:06;101387.16;;;16.47;100.00
38812;BME280;24553;51.640;-0.752;2022-07-22T02:15:32;101391.94;;;16.45;100.00
38812;BME280;24553;51.640;-0.752;2022-07-22T02:17:57;101398.53;;;16.42;100.00
38812;BME280;24553;51.640;-0.752;2022-07-22T02:20:23;101399.75;;;16.40;100.00
38812;BME280;24553;51.640;-0.752;2022-07-22T02:22:49;101405.13;;;16.40;100.00
38812;BME280;24553;51.640;-0.752;2022-07-22T02:25:15;101400.78;;;16.39;100.00
38812;BME280;24553;51.640;-0.752;2022-07-22T02:27:41;101396.84;;;16.41;100.00
38812;BME280;24553;51.640;-0.752;2022-07-22T02:30:08;101404.69;;;16.43;100.00
38812;BME280;24553;51.640;-0.752;2022-07-22T02:32:34;101408.00;;;16.45;100.00
38812;BME280;24553;51.640;-0.752;2022-07-22T02:34:59;101408.19;;;16.43;100.00
38812;BME280;24553;51.640;-0.752;2022-07-22T02:37:25;101405.13;;;16.40;100.00
38812;BME280;24553;51.640;-0.752;2022-07-22T02:39:50;101407.78;;;16.40;100.00
38812;BME280;24553;51.640;-0.752;2022-07-22T02:42:16;101402.44;;;16.40;100.00
38812;BME280;24553;51.640;-0.752;2022-07-22T02:44:41;101408.59;;;16.40;100.00
38812;BME280;24553;51.640;-0.752;2022-07-22T02:47:07;101408.81;;;16.39;100.00
38812;BME280;24553;51.640;-0.752;2022-07-22T02:49:32;101405.31;;;16.38;100.00
38812;BME280;24553;51.640;-0.752;2022-07-22T02:51:57;101412.53;;;16.38;100.00
38812;BME280;24553;51.640;-0.752;2022-07-22T02:54:23;101412.94;;;16.34;100.00
38812;BME280;24553;51.640;-0.752;2022-07-22T02:56:48;101416.44;;;16.35;100.00
38812;BME280;24553;51.640;-0.752;2022-07-22T02:59:13;101412.31;;;16.32;100.00
38812;BME280;24553;51.640;-0.752;2022-07-22T03:01:39;101407.97;;;16.31;100.00
38812;BME280;24553;51.640;-0.752;2022-07-22T03:04:04;101404.72;;;16.29;100.00
38812;BME280;24553;51.640;-0.752;2022-07-22T03:06:30;101408.19;;;16.30;100.00
38812;BME280;24553;51.640;-0.752;2022-07-22T03:08:55;101406.75;;;16.27;100.00
38812;BME280;24553;51.640;-0.752;2022-07-22T03:11:20;101406.13;;;16.25;100.00
38812;BME280;24553;51.640;-0.752;2022-07-22T03:13:46;101407.19;;;16.24;100.00
38812;BME280;24553;51.640;-0.752;2022-07-22T03:16:11;101400.16;;;16.23;100.00
38812;BME280;24553;51.640;-0.752;2022-07-22T03:18:37;101394.81;;;16.23;100.00
38812;BME280;24553;51.640;-0.752;2022-07-22T03:21:02;101399.56;;;16.21;100.00
38812;BME280;24553;51.640;-0.752;2022-07-22T03:23:27;101392.97;;;16.17;100.00
38812;BME280;24553;51.640;-0.752;2022-07-22T03:25:55;101392.97;;;16.17;100.00
38812;BME280;24553;51.640;-0.752;2022-07-22T03:28:21;101388.66;;;16.16;100.00
38812;BME280;24553;51.640;-0.752;2022-07-22T03:30:46;101385.97;;;16.16;100.00
38812;BME280;24553;51.640;-0.752;2022-07-22T03:33:11;101390.72;;;16.14;100.00
38812;BME280;24553;51.640;-0.752;2022-07-22T03:35:37;101386.19;;;16.14;100.00
38812;BME280;24553;51.640;-0.752;2022-07-22T03:38:02;101384.53;;;16.13;100.00
38812;BME280;24553;51.640;-0.752;2022-07-22T03:40:28;101380.00;;;16.14;100.00
38812;BME280;24553;51.640;-0.752;2022-07-22T03:42:53;101386.19;;;16.14;100.00
38812;BME280;24553;51.640;-0.752;2022-07-22T03:45:19;101378.34;;;16.13;100.00
38812;BME280;24553;51.640;-0.752;2022-07-22T03:47:44;101377.97;;;16.16;100.00
38812;BME280;24553;51.640;-0.752;2022-07-22T03:50:10;101378.16;;;16.14;100.00
38812;BME280;24553;51.640;-0.752;2022-07-22T03:52:35;101374.66;;;16.14;100.00
38812;BME280;24553;51.640;-0.752;2022-07-22T03:55:01;101369.72;;;16.11;100.00
38812;BME280;24553;51.640;-0.752;2022-07-22T03:57:26;101367.66;;;16.06;100.00
38812;BME280;24553;51.640;-0.752;2022-07-22T03:59:54;101370.53;;;16.05;100.00
38812;BME280;24553;51.640;-0.752;2022-07-22T04:02:19;101363.53;;;16.04;100.00
38812;BME280;24553;51.640;-0.752;2022-07-22T04:04:44;101374.25;;;16.04;100.00
38812;BME280;24553;51.640;-0.752;2022-07-22T04:07:10;101371.56;;;16.04;100.00
38812;BME280;24553;51.640;-0.752;2022-07-22T04:09:35;101369.91;;;16.03;100.00
38812;BME280;24553;51.640;-0.752;2022-07-22T04:12:00;101365.59;;;16.02;100.00
38812;BME280;24553;51.640;-0.752;2022-07-22T04:14:26;101364.34;;;15.98;100.00
38812;BME280;24553;51.640;-0.752;2022-07-22T04:16:51;101352.00;;;15.97;100.00
38812;BME280;24553;51.640;-0.752;2022-07-22T04:19:17;101362.72;;;15.97;100.00
38812;BME280;24553;51.640;-0.752;2022-07-22T04:21:42;101356.94;;;16.00;100.00
38812;BME280;24553;51.640;-0.752;2022-07-22T04:24:08;101349.97;;;15.99;100.00
38812;BME280;24553;51.640;-0.752;2022-07-22T04:26:33;101343.56;;;16.00;100.00
38812;BME280;24553;51.640;-0.752;2022-07-22T04:28:59;101346.47;;;15.98;100.00
38812;BME280;24553;51.640;-0.752;2022-07-22T04:31:24;101348.91;;;16.00;100.00
38812;BME280;24553;51.640;-0.752;2022-07-22T04:33:50;101344.38;;;16.00;100.00
38812;BME280;24553;51.640;-0.752;2022-07-22T04:36:15;101343.16;;;16.03;100.00
38812;BME280;24553;51.640;-0.752;2022-07-22T04:38:40;101340.47;;;16.03;100.00
38812;BME280;24553;51.640;-0.752;2022-07-22T04:41:06;101343.16;;;16.03;100.00
38812;BME280;24553;51.640;-0.752;2022-07-22T04:43:32;101344.81;;;16.04;100.00
38812;BME280;24553;51.640;-0.752;2022-07-22T04:45:57;101342.97;;;16.04;100.00
38812;BME280;24553;51.640;-0.752;2022-07-22T04:48:23;101339.66;;;16.02;100.00
38812;BME280;24553;51.640;-0.752;2022-07-22T04:50:48;101336.78;;;16.04;100.00
38812;BME280;24553;51.640;-0.752;2022-07-22T04:53:13;101336.56;;;16.05;100.00
38812;BME280;24553;51.640;-0.752;2022-07-22T04:55:39;101347.06;;;16.07;100.00
38812;BME280;24553;51.640;-0.752;2022-07-22T04:58:04;101335.34;;;16.08;100.00
38812;BME280;24553;51.640;-0.752;2022-07-22T05:00:30;101340.50;;;16.09;100.00
38812;BME280;24553;51.640;-0.752;2022-07-22T05:02:56;101337.63;;;16.11;100.00
38812;BME280;24553;51.640;-0.752;2022-07-22T05:05:21;101337.63;;;16.11;100.00
38812;BME280;24553;51.640;-0.752;2022-07-22T05:07:47;101345.41;;;16.12;100.00
38812;BME280;24553;51.640;-0.752;2022-07-22T05:10:12;101348.72;;;16.14;100.00
38812;BME280;24553;51.640;-0.752;2022-07-22T05:12:38;101352.03;;;16.17;100.00
38812;BME280;24553;51.640;-0.752;2022-07-22T05:15:04;101341.31;;;16.17;100.00
38812;BME280;24553;51.640;-0.752;2022-07-22T05:17:30;101346.44;;;16.18;100.00
38812;BME280;24553;51.640;-0.752;2022-07-22T05:19:55;101351.41;;;16.21;100.00
38812;BME280;24553;51.640;-0.752;2022-07-22T05:22:20;101349.94;;;16.25;100.00
38812;BME280;24553;51.640;-0.752;2022-07-22T05:24:46;101357.78;;;16.27;100.00
38812;BME280;24553;51.640;-0.752;2022-07-22T05:27:11;101363.94;;;16.27;100.00
38812;BME280;24553;51.640;-0.752;2022-07-22T05:29:37;101357.13;;;16.31;100.00
38812;BME280;24553;51.640;-0.752;2022-07-22T05:32:02;101360.44;;;16.33;100.00
38812;BME280;24553;51.640;-0.752;2022-07-22T05:34:28;101347.88;;;16.34;100.00
38812;BME280;24553;51.640;-0.752;2022-07-22T05:36:53;101351.97;;;16.36;100.00
38812;BME280;24553;51.640;-0.752;2022-07-22T05:39:18;101350.97;;;16.38;100.00
38812;BME280;24553;51.640;-0.752;2022-07-22T05:41:44;101354.25;;;16.40;100.00
38812;BME280;24553;51.640;-0.752;2022-07-22T05:44:09;101348.69;;;16.41;100.00
38812;BME280;24553;51.640;-0.752;2022-07-22T05:46:35;101347.88;;;16.41;100.00
38812;BME280;24553;51.640;-0.752;2022-07-22T05:49:00;101344.16;;;16.42;100.00
38812;BME280;24553;51.640;-0.752;2022-07-22T05:51:25;101340.47;;;16.43;100.00
38812;BME280;24553;51.640;-0.752;2022-07-22T05:53:51;101338.41;;;16.45;100.00
38812;BME280;24553;51.640;-0.752;2022-07-22T05:56:16;101335.72;;;16.45;100.00
38812;BME280;24553;51.640;-0.752;2022-07-22T05:58:42;101338.78;;;16.42;100.00
38812;BME280;24553;51.640;-0.752;2022-07-22T06:01:11;101342.50;;;16.41;100.00
38812;BME280;24553;51.640;-0.752;2022-07-22T06:03:37;101343.13;;;16.43;100.00
38812;BME280;24553;51.640;-0.752;2022-07-22T06:06:03;101343.34;;;16.48;100.00
38812;BME280;24553;51.640;-0.752;2022-07-22T06:08:30;101338.13;;;16.60;100.00
38812;BME280;24553;51.640;-0.752;2022-07-22T06:10:56;101341.84;;;16.78;100.00
38812;BME280;24553;51.640;-0.752;2022-07-22T06:13:22;101332.09;;;16.97;100.00
38812;BME280;24553;51.640;-0.752;2022-07-22T06:15:47;101339.44;;;17.09;100.00
38812;BME280;24553;51.640;-0.752;2022-07-22T06:18:12;101338.81;;;17.13;100.00
38812;BME280;24553;51.640;-0.752;2022-07-22T06:20:38;101332.63;;;17.19;100.00
38812;BME280;24553;51.640;-0.752;2022-07-22T06:23:03;101333.19;;;17.21;100.00
38812;BME280;24553;51.640;-0.752;2022-07-22T06:25:29;101333.63;;;17.18;100.00
38812;BME280;24553;51.640;-0.752;2022-07-22T06:27:54;101334.06;;;17.15;100.00
38812;BME280;24553;51.640;-0.752;2022-07-22T06:30:20;101339.03;;;17.12;100.00
38812;BME280;24553;51.640;-0.752;2022-07-22T06:32:45;101332.66;;;17.06;100.00
38812;BME280;24553;51.640;-0.752;2022-07-22T06:35:11;101334.31;;;17.07;100.00
38812;BME280;24553;51.640;-0.752;2022-07-22T06:37:36;101334.44;;;17.19;100.00
38812;BME280;24553;51.640;-0.752;2022-07-22T06:40:02;101335.22;;;17.33;100.00
38812;BME280;24553;51.640;-0.752;2022-07-22T06:42:28;101334.31;;;17.46;100.00
38812;BME280;24553;51.640;-0.752;2022-07-22T06:44:53;101338.53;;;17.60;100.00
38812;BME280;24553;51.640;-0.752;2022-07-22T06:47:18;101325.91;;;17.67;100.00
38812;BME280;24553;51.640;-0.752;2022-07-22T06:49:44;101332.31;;;17.66;100.00
38812;BME280;24553;51.640;-0.752;2022-07-22T06:52:09;101325.94;;;17.60;100.00
38812;BME280;24553;51.640;-0.752;2022-07-22T06:54:35;101323.88;;;17.62;100.00
38812;BME280;24553;51.640;-0.752;2022-07-22T06:57:00;101317.25;;;17.65;100.00
38812;BME280;24553;51.640;-0.752;2022-07-22T06:59:25;101318.91;;;17.66;100.00
38812;BME280;24553;51.640;-0.752;2022-07-22T07:01:51;101316.16;;;17.73;100.00
38812;BME280;24553;51.640;-0.752;2022-07-22T07:04:16;101318.59;;;17.81;100.00
38812;BME280;24553;51.640;-0.752;2022-07-22T07:06:44;101312.00;;;17.83;100.00
38812;BME280;24553;51.640;-0.752;2022-07-22T07:09:09;101319.19;;;17.90;100.00
38812;BME280;24553;51.640;-0.752;2022-07-22T07:11:34;101313.97;;;17.95;100.00
38812;BME280;24553;51.640;-0.752;2022-07-22T07:14:00;101320.66;;;18.11;100.00
38812;BME280;24553;51.640;-0.752;2022-07-22T07:16:25;101316.28;;;18.35;100.00
38812;BME280;24553;51.640;-0.752;2022-07-22T07:18:51;101315.81;;;18.38;100.00
38812;BME280;24553;51.640;-0.752;2022-07-22T07:21:16;101312.13;;;18.39;100.00
38812;BME280;24553;51.640;-0.752;2022-07-22T07:23:42;101310.41;;;18.44;100.00
38812;BME280;24553;51.640;-0.752;2022-07-22T07:26:07;101302.69;;;18.48;100.00
38812;BME280;24553;51.640;-0.752;2022-07-22T07:28:33;101303.25;;;18.57;100.00
38812;BME280;24553;51.640;-0.752;2022-07-22T07:30:58;101302.84;;;18.71;100.00
38812;BME280;24553;51.640;-0.752;2022-07-22T07:33:23;101299.22;;;18.84;100.00
38812;BME280;24553;51.640;-0.752;2022-07-22T07:35:49;101303.59;;;18.97;100.00
38812;BME280;24553;51.640;-0.752;2022-07-22T07:38:15;101301.00;;;18.90;100.00
38812;BME280;24553;51.640;-0.752;2022-07-22T07:40:40;101302.03;;;18.71;100.00
38812;BME280;24553;51.640;-0.752;2022-07-22T07:43:06;101300.47;;;18.63;100.00
38812;BME280;24553;51.640;-0.752;2022-07-22T07:45:31;101299.00;;;18.67;100.00
38812;BME280;24553;51.640;-0.752;2022-07-22T07:47:58;101293.22;;;18.64;100.00
38812;BME280;24553;51.640;-0.752;2022-07-22T07:50:24;101295.41;;;18.55;100.00
38812;BME280;24553;51.640;-0.752;2022-07-22T07:52:50;101290.28;;;18.53;100.00
38812;BME280;24553;51.640;-0.752;2022-07-22T07:55:15;101293.63;;;18.49;100.00
38812;BME280;24553;51.640;-0.752;2022-07-22T07:57:41;101298.53;;;18.52;100.00
38812;BME280;24553;51.640;-0.752;2022-07-22T08:00:09;101290.69;;;18.50;100.00
38812;BME280;24553;51.640;-0.752;2022-07-22T08:02:35;101291.75;;;18.49;100.00
38812;BME280;24553;51.640;-0.752;2022-07-22T08:05:01;101285.13;;;18.52;100.00
38812;BME280;24553;51.640;-0.752;2022-07-22T08:07:28;101283.78;;;18.61;100.00
38812;BME280;24553;51.640;-0.752;2022-07-22T08:09:54;101290.47;;;18.70;100.00
38812;BME280;24553;51.640;-0.752;2022-07-22T08:12:19;101278.03;;;18.76;100.00
38812;BME280;24553;51.640;-0.752;2022-07-22T08:14:44;101281.09;;;18.80;100.00
38812;BME280;24553;51.640;-0.752;2022-07-22T08:17:10;101275.41;;;18.88;100.00
38812;BME280;24553;51.640;-0.752;2022-07-22T08:19:35;101288.31;;;18.98;100.00
38812;BME280;24553;51.640;-0.752;2022-07-22T08:22:01;101277.25;;;19.06;100.00
38812;BME280;24553;51.640;-0.752;2022-07-22T08:24:26;101279.94;;;19.06;100.00
38812;BME280;24553;51.640;-0.752;2022-07-22T08:26:51;101289.63;;;19.07;100.00
38812;BME280;24553;51.640;-0.752;2022-07-22T08:29:17;101274.63;;;18.99;100.00
38812;BME280;24553;51.640;-0.752;2022-07-22T08:31:43;101279.94;;;19.06;100.00
38812;BME280;24553;51.640;-0.752;2022-07-22T08:34:08;101269.84;;;19.31;100.00
38812;BME280;24553;51.640;-0.752;2022-07-22T08:36:33;101259.00;;;19.50;100.00
38812;BME280;24553;51.640;-0.752;2022-07-22T08:38:59;101263.00;;;19.59;100.00
38812;BME280;24553;51.640;-0.752;2022-07-22T08:41:25;101258.72;;;19.81;100.00
38812;BME280;24553;51.640;-0.752;2022-07-22T08:43:51;101250.75;;;20.10;100.00
38812;BME280;24553;51.640;-0.752;2022-07-22T08:46:17;101249.91;;;20.33;100.00
38812;BME280;24553;51.640;-0.752;2022-07-22T08:48:43;101245.91;;;20.47;100.00
38812;BME280;24553;51.640;-0.752;2022-07-22T08:51:09;101244.75;;;20.55;100.00
38812;BME280;24553;51.640;-0.752;2022-07-22T08:53:34;101255.47;;;20.67;100.00
38812;BME280;24553;51.640;-0.752;2022-07-22T08:56:00;101253.44;;;20.86;100.00
38812;BME280;24553;51.640;-0.752;2022-07-22T08:58:26;101247.84;;;20.76;100.00
38812;BME280;24553;51.640;-0.752;2022-07-22T09:01:13;101254.91;;;20.53;100.00
38812;BME280;24553;51.640;-0.752;2022-07-22T09:03:48;101249.75;;;20.63;100.00
38812;BME280;24553;51.640;-0.752;2022-07-22T09:06:16;101249.50;;;20.65;100.00
38812;BME280;24553;51.640;-0.752;2022-07-22T09:11:26;101237.88;;;21.05;100.00
38812;BME280;24553;51.640;-0.752;2022-07-22T09:13:53;101227.75;;;21.12;100.00
38812;BME280;24553;51.640;-0.752;2022-07-22T09:19:06;101216.91;;;21.58;100.00
38812;BME280;24553;51.640;-0.752;2022-07-22T09:21:34;101221.81;;;21.77;100.00
38812;BME280;24553;51.640;-0.752;2022-07-22T09:24:01;101208.03;;;21.96;100.00
38812;BME280;24553;51.640;-0.752;2022-07-22T09:26:34;101218.28;;;22.16;100.00
38812;BME280;24553;51.640;-0.752;2022-07-22T09:29:01;101220.94;;;22.33;100.00
38812;BME280;24553;51.640;-0.752;2022-07-22T09:31:31;101211.72;;;22.29;100.00
38812;BME280;24553;51.640;-0.752;2022-07-22T09:33:58;101206.19;;;22.40;100.00
38812;BME280;24553;51.640;-0.752;2022-07-22T09:36:24;101212.53;;;22.51;100.00
38812;BME280;24553;51.640;-0.752;2022-07-22T09:38:50;101206.19;;;22.40;100.00
38812;BME280;24553;51.640;-0.752;2022-07-22T09:41:16;101204.09;;;22.48;100.00
38812;BME280;24553;51.640;-0.752;2022-07-22T09:43:41;101206.91;;;22.58;100.00
38812;BME280;24553;51.640;-0.752;2022-07-22T09:46:07;101219.53;;;22.74;100.00
38812;BME280;24553;51.640;-0.752;2022-07-22T09:48:33;101218.09;;;22.94;100.00
38812;BME280;24553;51.640;-0.752;2022-07-22T09:50:59;101225.63;;;23.14;100.00
38812;BME280;24553;51.640;-0.752;2022-07-22T09:53:26;101221.16;;;23.29;100.00
38812;BME280;24553;51.640;-0.752;2022-07-22T09:55:53;101222.28;;;23.34;100.00
38812;BME280;24553;51.640;-0.752;2022-07-22T09:58:18;101220.09;;;23.30;100.00
38812;BME280;24553;51.640;-0.752;2022-07-22T10:00:44;101224.41;;;23.26;100.00
38812;BME280;24553;51.640;-0.752;2022-07-22T10:03:18;101220.59;;;23.27;100.00
38812;BME280;24553;51.640;-0.752;2022-07-22T10:05:44;101216.97;;;23.49;100.00
38812;BME280;24553;51.640;-0.752;2022-07-22T10:08:10;101216.56;;;23.62;100.00
38812;BME280;24553;51.640;-0.752;2022-07-22T10:10:37;101208.91;;;23.54;100.00
38812;BME280;24553;51.640;-0.752;2022-07-22T10:13:05;101223.44;;;23.43;100.00
38812;BME280;24553;51.640;-0.752;2022-07-22T10:15:32;101224.97;;;23.28;100.00
38812;BME280;24553;51.640;-0.752;2022-07-22T10:18:00;101219.47;;;23.18;100.00
38812;BME280;24553;51.640;-0.752;2022-07-22T10:20:29;101217.78;;;23.12;100.00
38812;BME280;24553;51.640;-0.752;2022-07-22T10:23:04;101221.84;;;22.88;100.00
38812;BME280;24553;51.640;-0.752;2022-07-22T10:25:32;101221.75;;;22.55;100.00
38812;BME280;24553;51.640;-0.752;2022-07-22T10:28:24;101214.66;;;22.49;100.00
38812;BME280;24553;51.640;-0.752;2022-07-22T10:30:50;101218.88;;;22.40;100.00
38812;BME280;24553;51.640;-0.752;2022-07-22T10:33:20;101217.44;;;22.32;100.00
38812;BME280;24553;51.640;-0.752;2022-07-22T10:35:54;101210.19;;;22.16;100.00
38812;BME280;24553;51.640;-0.752;2022-07-22T10:38:20;101207.44;;;21.94;100.00
38812;BME280;24553;51.640;-0.752;2022-07-22T10:43:12;101198.47;;;21.88;100.00
38812;BME280;24553;51.640;-0.752;2022-07-22T10:45:45;101206.50;;;21.83;100.00
38812;BME280;24553;51.640;-0.752;2022-07-22T10:48:22;101203.22;;;21.81;100.00
38812;BME280;24553;51.640;-0.752;2022-07-22T10:50:51;101204.28;;;21.80;100.00
38812;BME280;24553;51.640;-0.752;2022-07-22T10:53:39;101197.00;;;21.81;100.00
38812;BME280;24553;51.640;-0.752;2022-07-22T11:01:30;101202.38;;;21.97;100.00
38812;BME280;24553;51.640;-0.752;2022-07-22T11:03:56;101198.75;;;22.09;100.00
38812;BME280;24553;51.640;-0.752;2022-07-22T11:06:32;101188.31;;;22.17;100.00
38812;BME280;24553;51.640;-0.752;2022-07-22T11:09:00;101199.94;;;22.18;100.00
38812;BME280;24553;51.640;-0.752;2022-07-22T11:11:41;101189.84;;;22.30;100.00
38812;BME280;24553;51.640;-0.752;2022-07-22T11:16:57;101198.00;;;22.57;100.00
38812;BME280;24553;51.640;-0.752;2022-07-22T11:19:28;101189.50;;;22.71;100.00
38812;BME280;24553;51.640;-0.752;2022-07-22T11:21:59;101192.19;;;22.71;100.00
38812;BME280;24553;51.640;-0.752;2022-07-22T11:24:27;101175.25;;;22.53;100.00
38812;BME280;24553;51.640;-0.752;2022-07-22T11:26:55;101178.47;;;22.50;100.00
38812;BME280;24553;51.640;-0.752;2022-07-22T11:31:58;101169.56;;;22.28;100.00
38812;BME280;24553;51.640;-0.752;2022-07-22T11:34:25;101168.81;;;22.10;100.00
38812;BME280;24553;51.640;-0.752;2022-07-22T11:36:50;101165.19;;;22.21;100.00
38812;BME280;24553;51.640;-0.752;2022-07-22T11:39:21;101164.00;;;22.17;100.00
38812;BME280;24553;51.640;-0.752;2022-07-22T11:41:48;101159.69;;;21.94;100.00
38812;BME280;24553;51.640;-0.752;2022-07-22T11:44:21;101172.47;;;21.82;100.00
38812;BME280;24553;51.640;-0.752;2022-07-22T11:46:47;101161.97;;;21.64;100.00
38812;BME280;24553;51.640;-0.752;2022-07-22T11:49:14;101170.97;;;21.52;100.00
38812;BME280;24553;51.640;-0.752;2022-07-22T11:51:40;101163.22;;;21.39;100.00
38812;BME280;24553;51.640;-0.752;2022-07-22T11:54:06;101161.91;;;21.25;100.00
38812;BME280;24553;51.640;-0.752;2022-07-22T11:56:31;101159.94;;;21.20;100.00
38812;BME280;24553;51.640;-0.752;2022-07-22T11:58:57;101163.03;;;21.12;100.00
38812;BME280;24553;51.640;-0.752;2022-07-22T12:01:28;101163.19;;;21.05;100.00
38812;BME280;24553;51.640;-0.752;2022-07-22T12:03:57;101157.94;;;20.99;100.00
38812;BME280;24553;51.640;-0.752;2022-07-22T12:06:23;101164.56;;;20.91;100.00
38812;BME280;24553;51.640;-0.752;2022-07-22T12:09:13;101156.63;;;20.84;100.00
38812;BME280;24553;51.640;-0.752;2022-07-22T12:11:41;101158.03;;;20.87;100.00
38812;BME280;24553;51.640;-0.752;2022-07-22T12:14:13;101165.97;;;20.94;100.00
38812;BME280;24553;51.640;-0.752;2022-07-22T12:16:39;101166.44;;;20.90;100.00
38812;BME280;24553;51.640;-0.752;2022-07-22T12:19:07;101158.25;;;20.85;100.00
38812;BME280;24553;51.640;-0.752;2022-07-22T12:21:36;101155.97;;;20.77;100.00
38812;BME280;24553;51.640;-0.752;2022-07-22T12:24:07;101151.38;;;20.78;100.00
38812;BME280;24553;51.640;-0.752;2022-07-22T12:26:46;101158.50;;;20.84;100.00
38812;BME280;24553;51.640;-0.752;2022-07-22T12:32:29;101157.88;;;21.10;100.00
38812;BME280;24553;51.640;-0.752;2022-07-22T12:42:22;101162.97;;;21.07;100.00
38812;BME280;24553;51.640;-0.752;2022-07-22T12:47:55;101162.69;;;20.91;100.00
38812;BME280;24553;51.640;-0.752;2022-07-22T12:50:42;101163.00;;;20.78;100.00
38812;BME280;24553;51.640;-0.752;2022-07-22T12:55:43;101169.63;;;20.59;100.00
38812;BME280;24553;51.640;-0.752;2022-07-22T12:58:09;101169.97;;;20.62;100.00
38812;BME280;24553;51.640;-0.752;2022-07-22T13:00:46;101161.75;;;20.69;100.00
38812;BME280;24553;51.640;-0.752;2022-07-22T13:03:12;101163.72;;;20.74;100.00